Time;durP1;ratioP1;P1;durP2;ratioP2;P2;SDS_P1;SDS_P2;PMS_P1;PMS_P2;Temp;Humidity;BMP_temperature;BMP_pressure;BME280_temperature;BME280_humidity;BME280_pressure;Samples;Min_cycle;Max_cycle;Signal;HPM_P1;HPM_P2
2022/12/11 00:00:45;;;;;;;;;;;0.20;99.90;;;;;;5087960;27;19934;-64
2022/12/11 00:03:11;;;;;;;;;;;0.20;99.90;;;;;;5095164;28;19928;-63
2022/12/11 00:05:40;;;;;;;;;;;0.30;99.90;;;;;;5076076;28;19920;-63
2022/12/11 00:08:05;;;;;;;;;;;0.30;99.90;;;;;;5080263;28;19937;-63
2022/12/11 00:10:31;;;;;;;;;;;0.30;99.90;;;;;;5077648;28;20357;-64
2022/12/11 00:12:57;;;;;;;;;;;0.30;99.90;;;;;;5067030;28;19976;-63
2022/12/11 00:15:22;;;;;;;;;;;0.30;99.90;;;;;;5077546;28;19924;-64
2022/12/11 00:17:48;;;;;;;;;;;0.20;99.90;;;;;;5066951;28;20027;-63
2022/12/11 00:20:13;;;;;;;;;;;0.30;99.90;;;;;;5075860;28;20015;-63
2022/12/11 00:22:39;;;;;;;;;;;0.30;99.90;;;;;;5081045;28;20418;-63
2022/12/11 00:25:04;;;;;;;;;;;0.40;99.90;;;;;;5072233;28;19924;-64
2022/12/11 00:27:30;;;;;;;;;;;0.30;99.90;;;;;;5109840;27;19920;-63
2022/12/11 00:29:55;;;;;;;;;;;0.40;99.90;;;;;;5085749;28;19928;-64
2022/12/11 00:32:21;;;;;;;;;;;0.20;99.90;;;;;;5059062;28;20916;-63
2022/12/11 00:34:47;;;;;;;;;;;0.40;99.90;;;;;;5073211;28;20371;-63
2022/12/11 00:37:12;;;;;;;;;;;0.30;99.90;;;;;;5089087;28;19920;-64
2022/12/11 00:39:38;;;;;;;;;;;0.30;99.90;;;;;;5070711;28;19923;-63
2022/12/11 00:42:04;;;;;;;;;;;0.40;99.90;;;;;;5079619;28;19923;-64
2022/12/11 00:44:30;;;;;;;;;;;0.40;99.90;;;;;;5068746;28;19928;-64
2022/12/11 00:46:55;;;;;;;;;;;0.40;99.90;;;;;;5103383;28;19920;-64
2022/12/11 00:49:21;;;;;;;;;;;0.20;99.90;;;;;;5077202;28;19919;-63
2022/12/11 00:51:46;;;;;;;;;;;0.40;99.90;;;;;;5068590;28;20499;-64
2022/12/11 00:54:12;;;;;;;;;;;0.40;99.90;;;;;;5081951;28;19924;-64
2022/12/11 00:56:37;;;;;;;;;;;0.30;99.90;;;;;;5079749;28;19930;-64
2022/12/11 00:59:03;;;;;;;;;;;0.40;99.90;;;;;;5079588;28;20712;-64
2022/12/11 01:01:28;;;;;;;;;;;0.30;99.90;;;;;;5072286;28;19985;-64
2022/12/11 01:03:54;;;;;;;;;;;0.40;99.90;;;;;;5072765;28;20023;-64
2022/12/11 01:06:20;;;;;;;;;;;0.40;99.90;;;;;;5054283;28;19951;-64
2022/12/11 01:08:46;;;;;;;;;;;0.40;99.90;;;;;;5068389;28;19978;-63
2022/12/11 01:11:13;;;;;;;;;;;0.30;99.90;;;;;;5074815;28;19951;-63
2022/12/11 01:13:39;;;;;;;;;;;0.40;99.90;;;;;;5115593;28;20270;-64
2022/12/11 01:16:08;;;;;;;;;;;0.40;99.90;;;;;;5103494;28;19932;-64
2022/12/11 01:18:34;;;;;;;;;;;0.40;99.90;;;;;;5083962;28;20324;-64
2022/12/11 01:21:03;;;;;;;;;;;0.30;99.90;;;;;;5072921;28;19928;-64
2022/12/11 01:23:29;;;;;;;;;;;0.30;99.90;;;;;;5077225;28;20323;-64
2022/12/11 01:25:54;;;;;;;;;;;0.30;99.90;;;;;;5075393;28;20014;-64
2022/12/11 01:28:20;;;;;;;;;;;0.40;99.90;;;;;;5075695;28;19989;-64
2022/12/11 01:30:45;;;;;;;;;;;0.50;99.90;;;;;;5074293;28;19988;-64
2022/12/11 01:33:11;;;;;;;;;;;0.40;99.90;;;;;;5075469;28;19923;-64
2022/12/11 01:35:37;;;;;;;;;;;0.40;99.90;;;;;;5080649;28;20419;-64
2022/12/11 01:38:03;;;;;;;;;;;0.40;99.90;;;;;;5117204;28;19967;-64
2022/12/11 01:40:28;;;;;;;;;;;0.30;99.90;;;;;;5080744;28;19955;-64
2022/12/11 01:42:54;;;;;;;;;;;0.30;99.90;;;;;;5074898;28;19919;-64
2022/12/11 01:45:22;;;;;;;;;;;0.40;99.90;;;;;;5089283;28;20022;-64
2022/12/11 01:47:49;;;;;;;;;;;0.40;99.90;;;;;;5074904;28;19920;-64
2022/12/11 01:50:14;;;;;;;;;;;0.50;99.90;;;;;;5090868;28;19928;-64
2022/12/11 01:52:41;;;;;;;;;;;0.50;99.90;;;;;;5087362;28;19923;-64
2022/12/11 01:55:08;;;;;;;;;;;0.40;99.90;;;;;;5074227;28;20562;-64
2022/12/11 01:57:35;;;;;;;;;;;0.40;99.90;;;;;;5092432;28;19943;-64
2022/12/11 02:00:00;;;;;;;;;;;0.40;99.90;;;;;;5082797;28;19970;-64
2022/12/11 02:02:28;;;;;;;;;;;0.50;99.90;;;;;;5094433;28;19955;-64
2022/12/11 02:04:53;;;;;;;;;;;0.40;99.90;;;;;;5089274;28;19928;-64
2022/12/11 02:07:19;;;;;;;;;;;0.50;99.90;;;;;;5101785;28;19953;-64
2022/12/11 02:09:45;;;;;;;;;;;0.40;99.90;;;;;;5101518;28;20327;-64
2022/12/11 02:12:10;;;;;;;;;;;0.50;99.90;;;;;;5100976;28;19923;-64
2022/12/11 02:14:55;;;;;;;;;;;0.50;99.90;;;;;;5102132;28;19924;-64
2022/12/11 02:17:24;;;;;;;;;;;0.50;99.90;;;;;;5100574;28;19924;-64
2022/12/11 02:20:08;;;;;;;;;;;0.40;99.90;;;;;;5127150;27;19929;-64
2022/12/11 02:22:57;;;;;;;;;;;0.50;99.90;;;;;;5098016;28;20010;-64
2022/12/11 02:25:32;;;;;;;;;;;0.50;99.90;;;;;;5098140;28;20194;-64
2022/12/11 02:28:15;;;;;;;;;;;0.50;99.90;;;;;;5099627;28;20010;-64
2022/12/11 02:30:43;;;;;;;;;;;0.60;99.90;;;;;;5094901;28;20298;-65
2022/12/11 02:33:10;;;;;;;;;;;0.60;99.90;;;;;;5099028;28;20346;-64
2022/12/11 02:35:38;;;;;;;;;;;0.50;99.90;;;;;;5098111;28;20367;-65
2022/12/11 02:38:06;;;;;;;;;;;0.60;99.90;;;;;;5095423;28;19920;-65
2022/12/11 02:40:34;;;;;;;;;;;0.60;99.90;;;;;;5098082;28;19926;-64
2022/12/11 02:43:01;;;;;;;;;;;0.50;99.90;;;;;;5096529;28;19924;-64
2022/12/11 02:45:27;;;;;;;;;;;0.50;99.90;;;;;;5097610;28;19928;-64
2022/12/11 02:47:53;;;;;;;;;;;0.50;99.90;;;;;;5089765;28;19972;-64
2022/12/11 02:50:20;;;;;;;;;;;0.60;99.90;;;;;;5082079;28;19924;-64
2022/12/11 02:52:47;;;;;;;;;;;0.50;99.90;;;;;;5098277;28;19920;-64
2022/12/11 02:55:13;;;;;;;;;;;0.50;99.90;;;;;;5127495;27;19939;-64
2022/12/11 02:57:44;;;;;;;;;;;0.60;99.90;;;;;;5089157;28;19924;-64
2022/12/11 03:00:10;;;;;;;;;;;0.60;99.90;;;;;;5094372;28;19928;-65
2022/12/11 03:02:36;;;;;;;;;;;0.50;99.90;;;;;;5089267;28;19925;-64
2022/12/11 03:05:02;;;;;;;;;;;0.60;99.90;;;;;;5091806;28;19924;-64
2022/12/11 03:07:30;;;;;;;;;;;0.60;99.90;;;;;;5088997;28;20386;-65
2022/12/11 03:09:56;;;;;;;;;;;0.60;99.90;;;;;;5084482;28;19920;-65
2022/12/11 03:12:32;;;;;;;;;;;0.50;99.90;;;;;;5118499;27;20374;-64
2022/12/11 03:14:59;;;;;;;;;;;0.60;99.90;;;;;;5097207;28;19923;-64
2022/12/11 03:17:39;;;;;;;;;;;0.50;99.90;;;;;;5096767;28;19989;-64
2022/12/11 03:20:08;;;;;;;;;;;0.60;99.90;;;;;;5101437;28;20308;-64
2022/12/11 03:22:37;;;;;;;;;;;0.60;99.90;;;;;;5093588;27;19928;-64
2022/12/11 03:25:05;;;;;;;;;;;0.60;99.90;;;;;;5089013;28;19942;-64
2022/12/11 03:27:40;;;;;;;;;;;0.60;99.90;;;;;;5097568;28;20286;-65
2022/12/11 03:30:07;;;;;;;;;;;0.60;99.90;;;;;;5097532;28;20006;-64
2022/12/11 03:32:37;;;;;;;;;;;0.50;99.90;;;;;;5101269;28;19980;-65
2022/12/11 03:35:06;;;;;;;;;;;0.60;99.90;;;;;;5073856;28;19932;-64
2022/12/11 03:37:33;;;;;;;;;;;0.60;99.90;;;;;;5091486;28;19926;-64
2022/12/11 03:40:02;;;;;;;;;;;0.60;99.90;;;;;;5090047;28;19951;-64
2022/12/11 03:42:28;;;;;;;;;;;0.50;99.90;;;;;;5093901;28;20414;-64
2022/12/11 03:44:53;;;;;;;;;;;0.60;99.90;;;;;;5135172;27;19924;-64
2022/12/11 03:47:21;;;;;;;;;;;0.60;99.90;;;;;;5096095;28;20298;-64
2022/12/11 03:49:47;;;;;;;;;;;0.60;99.90;;;;;;5103012;28;19919;-65
2022/12/11 03:52:13;;;;;;;;;;;0.50;99.90;;;;;;5089610;28;19931;-65
2022/12/11 03:54:40;;;;;;;;;;;0.50;99.90;;;;;;5133040;27;19924;-64
2022/12/11 03:57:07;;;;;;;;;;;0.60;99.90;;;;;;5092742;28;19946;-64
2022/12/11 03:59:32;;;;;;;;;;;0.70;99.90;;;;;;5101855;28;20389;-65
2022/12/11 04:01:58;;;;;;;;;;;0.60;99.90;;;;;;5072827;28;19924;-64
2022/12/11 04:04:24;;;;;;;;;;;0.50;99.90;;;;;;5082600;28;19931;-64
2022/12/11 04:06:49;;;;;;;;;;;0.60;99.90;;;;;;5077697;28;19930;-64
2022/12/11 04:09:15;;;;;;;;;;;0.60;99.90;;;;;;5106200;27;19926;-64
2022/12/11 04:11:41;;;;;;;;;;;0.60;99.90;;;;;;5078153;28;20022;-64
2022/12/11 04:16:53;;;;;;;;;;;0.70;99.90;;;;;;5076392;28;20347;-64
2022/12/11 04:25:00;;;;;;;;;;;0.60;99.90;;;;;;5068916;28;20351;-64
2022/12/11 04:30:12;;;;;;;;;;;0.70;99.90;;;;;;5084789;28;19997;-64
2022/12/11 04:32:37;;;;;;;;;;;0.60;99.90;;;;;;5085973;28;19931;-64
2022/12/11 04:35:03;;;;;;;;;;;0.60;99.90;;;;;;5094232;28;19924;-64
2022/12/11 04:37:29;;;;;;;;;;;0.60;99.90;;;;;;5092858;28;19928;-64
2022/12/11 04:39:54;;;;;;;;;;;0.70;99.90;;;;;;5100806;28;19920;-64
2022/12/11 04:42:19;;;;;;;;;;;0.70;99.90;;;;;;5075051;28;20000;-65
2022/12/11 04:44:45;;;;;;;;;;;0.70;99.90;;;;;;5075214;28;19920;-64
2022/12/11 04:47:11;;;;;;;;;;;0.70;99.90;;;;;;5078026;28;19920;-64
2022/12/11 04:49:36;;;;;;;;;;;0.70;99.90;;;;;;5113127;28;19927;-65
2022/12/11 04:52:02;;;;;;;;;;;0.70;99.90;;;;;;5071099;28;20161;-65
2022/12/11 04:54:28;;;;;;;;;;;0.60;99.90;;;;;;5080744;28;19998;-64
2022/12/11 04:56:54;;;;;;;;;;;0.70;99.90;;;;;;5077823;28;20385;-65
2022/12/11 04:59:19;;;;;;;;;;;0.60;99.90;;;;;;5093454;28;20297;-65
2022/12/11 05:01:45;;;;;;;;;;;0.70;99.90;;;;;;5072073;28;20023;-64
2022/12/11 05:04:10;;;;;;;;;;;0.70;99.90;;;;;;5075048;28;20427;-65
2022/12/11 05:06:36;;;;;;;;;;;0.60;99.90;;;;;;5079799;28;19930;-64
2022/12/11 05:09:01;;;;;;;;;;;0.70;99.90;;;;;;5079768;28;19924;-65
2022/12/11 05:11:27;;;;;;;;;;;0.70;99.90;;;;;;5081096;28;19926;-65
2022/12/11 05:13:52;;;;;;;;;;;0.80;99.90;;;;;;5085908;28;19938;-65
2022/12/11 05:16:18;;;;;;;;;;;0.80;99.90;;;;;;5088000;28;19920;-65
2022/12/11 05:18:43;;;;;;;;;;;0.60;99.90;;;;;;5078787;28;19924;-65
2022/12/11 05:21:10;;;;;;;;;;;0.70;99.90;;;;;;5093297;28;19934;-65
2022/12/11 05:23:36;;;;;;;;;;;0.70;99.90;;;;;;5088607;28;19923;-65
2022/12/11 05:26:06;;;;;;;;;;;0.70;99.90;;;;;;5081858;28;20336;-65
2022/12/11 05:28:32;;;;;;;;;;;0.60;99.90;;;;;;5080685;28;19919;-65
2022/12/11 05:30:59;;;;;;;;;;;0.70;99.90;;;;;;5110319;27;19923;-65
2022/12/11 05:33:24;;;;;;;;;;;0.70;99.90;;;;;;5070188;28;19927;-64
2022/12/11 05:35:50;;;;;;;;;;;0.70;99.90;;;;;;5079181;28;19929;-64
2022/12/11 05:38:16;;;;;;;;;;;0.70;99.90;;;;;;5098534;28;19946;-64
2022/12/11 05:40:41;;;;;;;;;;;0.60;99.90;;;;;;5080993;28;19919;-65
2022/12/11 05:43:07;;;;;;;;;;;0.70;99.90;;;;;;5114257;27;20407;-64
2022/12/11 05:45:33;;;;;;;;;;;0.70;99.90;;;;;;5089381;28;19920;-65
2022/12/11 05:47:58;;;;;;;;;;;0.80;99.90;;;;;;5077391;28;20071;-64
2022/12/11 05:50:24;;;;;;;;;;;0.60;99.90;;;;;;5091686;28;19939;-65
2022/12/11 05:52:49;;;;;;;;;;;0.80;99.90;;;;;;5080079;28;19926;-65
2022/12/11 05:55:15;;;;;;;;;;;0.80;99.90;;;;;;5081271;28;19946;-64
2022/12/11 05:57:40;;;;;;;;;;;0.70;99.90;;;;;;5073478;28;19928;-65
2022/12/11 06:00:06;;;;;;;;;;;0.70;99.90;;;;;;5080403;28;19920;-65
2022/12/11 06:02:33;;;;;;;;;;;0.70;99.90;;;;;;5098880;28;19928;-64
2022/12/11 06:04:59;;;;;;;;;;;0.80;99.90;;;;;;5099849;27;19928;-64
2022/12/11 06:07:24;;;;;;;;;;;0.80;99.90;;;;;;5064654;28;20374;-64
2022/12/11 06:09:50;;;;;;;;;;;0.70;99.90;;;;;;5073738;28;19928;-65
2022/12/11 06:12:15;;;;;;;;;;;0.80;99.90;;;;;;5076329;28;19927;-65
2022/12/11 06:14:41;;;;;;;;;;;0.80;99.90;;;;;;5079627;28;20046;-64
2022/12/11 06:17:06;;;;;;;;;;;0.70;99.90;;;;;;5069530;28;20315;-64
2022/12/11 06:19:32;;;;;;;;;;;0.80;99.90;;;;;;5110754;28;19927;-64
2022/12/11 06:21:57;;;;;;;;;;;0.70;99.90;;;;;;5070537;28;19930;-64
2022/12/11 06:24:23;;;;;;;;;;;0.70;99.90;;;;;;5113265;27;20289;-64
2022/12/11 06:26:48;;;;;;;;;;;0.80;99.90;;;;;;5098791;28;19924;-64
2022/12/11 06:29:14;;;;;;;;;;;0.70;99.90;;;;;;5079685;28;19920;-64
2022/12/11 06:31:40;;;;;;;;;;;0.70;99.90;;;;;;5067541;28;19928;-64
2022/12/11 06:34:05;;;;;;;;;;;0.80;99.90;;;;;;5075082;28;19924;-64
2022/12/11 06:36:31;;;;;;;;;;;0.80;99.90;;;;;;5079059;28;19974;-65
2022/12/11 06:38:56;;;;;;;;;;;0.70;99.90;;;;;;5077378;28;19920;-64
2022/12/11 06:41:22;;;;;;;;;;;0.70;99.90;;;;;;5066333;28;19924;-64
2022/12/11 06:43:47;;;;;;;;;;;0.80;99.90;;;;;;5073614;28;19920;-65
2022/12/11 06:46:14;;;;;;;;;;;0.80;99.90;;;;;;5075497;28;19920;-65
2022/12/11 06:48:41;;;;;;;;;;;0.70;99.90;;;;;;5107194;27;20374;-64
2022/12/11 06:51:07;;;;;;;;;;;0.70;99.90;;;;;;5098987;27;20053;-64
2022/12/11 06:53:33;;;;;;;;;;;0.70;99.90;;;;;;5099384;27;19920;-64
2022/12/11 06:56:03;;;;;;;;;;;0.80;99.90;;;;;;5108824;27;19947;-64
2022/12/11 06:58:28;;;;;;;;;;;0.70;99.90;;;;;;5063723;28;20069;-64
2022/12/11 07:00:54;;;;;;;;;;;0.70;99.90;;;;;;5075223;28;20206;-65
2022/12/11 07:03:19;;;;;;;;;;;0.80;99.90;;;;;;5092628;27;19927;-64
2022/12/11 07:05:45;;;;;;;;;;;0.80;99.90;;;;;;5077862;28;20378;-64
2022/12/11 07:08:10;;;;;;;;;;;0.70;99.90;;;;;;5056258;28;19931;-64
2022/12/11 07:10:36;;;;;;;;;;;0.70;99.90;;;;;;5068712;28;20382;-64
2022/12/11 07:13:01;;;;;;;;;;;0.80;99.90;;;;;;5069761;28;19924;-64
2022/12/11 07:15:27;;;;;;;;;;;0.80;99.90;;;;;;5069817;28;19986;-65
2022/12/11 07:17:52;;;;;;;;;;;0.80;99.90;;;;;;5099388;28;19924;-64
2022/12/11 07:20:18;;;;;;;;;;;0.80;99.90;;;;;;5113146;27;19975;-65
2022/12/11 07:22:43;;;;;;;;;;;0.80;99.90;;;;;;5070585;28;20404;-64
2022/12/11 07:25:09;;;;;;;;;;;0.80;99.90;;;;;;5068617;28;19928;-65
2022/12/11 07:27:34;;;;;;;;;;;0.80;99.90;;;;;;5099490;27;19920;-67
2022/12/11 07:30:00;;;;;;;;;;;0.80;99.90;;;;;;5065872;28;19924;-64
2022/12/11 07:32:25;;;;;;;;;;;0.80;99.90;;;;;;5062612;28;19924;-64
2022/12/11 07:34:50;;;;;;;;;;;0.70;99.90;;;;;;5078161;28;20324;-65
2022/12/11 07:37:16;;;;;;;;;;;0.90;99.90;;;;;;5072257;28;19935;-64
2022/12/11 07:39:42;;;;;;;;;;;0.80;99.90;;;;;;5105526;27;19958;-64
2022/12/11 07:42:07;;;;;;;;;;;0.70;99.90;;;;;;5064348;28;19963;-64
2022/12/11 07:44:33;;;;;;;;;;;0.80;99.90;;;;;;5074050;28;19928;-64
2022/12/11 07:46:58;;;;;;;;;;;0.80;99.90;;;;;;5090734;28;19978;-64
2022/12/11 07:49:24;;;;;;;;;;;0.90;99.90;;;;;;5092498;28;19968;-64
2022/12/11 07:51:49;;;;;;;;;;;0.80;99.90;;;;;;5100365;28;19924;-64
2022/12/11 07:54:15;;;;;;;;;;;0.80;99.90;;;;;;5108427;28;19927;-64
2022/12/11 07:56:42;;;;;;;;;;;0.80;99.90;;;;;;5104995;27;19924;-64
2022/12/11 07:59:07;;;;;;;;;;;0.70;99.90;;;;;;5113919;27;19923;-64
2022/12/11 08:01:35;;;;;;;;;;;0.80;99.90;;;;;;5082627;28;19931;-64
2022/12/11 08:04:01;;;;;;;;;;;0.90;99.90;;;;;;5124168;27;20352;-64
2022/12/11 08:06:28;;;;;;;;;;;0.80;99.90;;;;;;5093310;28;20057;-64
2022/12/11 08:08:57;;;;;;;;;;;0.90;99.90;;;;;;5082761;28;20010;-64
2022/12/11 08:11:22;;;;;;;;;;;0.80;99.90;;;;;;5114609;27;19928;-64
2022/12/11 08:13:48;;;;;;;;;;;0.80;99.90;;;;;;5081167;28;19920;-64
2022/12/11 08:16:14;;;;;;;;;;;0.80;99.90;;;;;;5089869;28;19928;-65
2022/12/11 08:18:40;;;;;;;;;;;0.90;99.90;;;;;;5087061;28;19920;-64
2022/12/11 08:21:06;;;;;;;;;;;0.80;99.90;;;;;;5096058;28;21538;-64
2022/12/11 08:23:32;;;;;;;;;;;0.80;99.90;;;;;;5092635;28;19926;-64
2022/12/11 08:25:58;;;;;;;;;;;0.90;99.90;;;;;;5090281;28;19924;-64
2022/12/11 08:28:23;;;;;;;;;;;0.90;99.90;;;;;;5090920;28;19971;-65
2022/12/11 08:30:49;;;;;;;;;;;0.80;99.90;;;;;;5086053;28;20357;-64
2022/12/11 08:33:14;;;;;;;;;;;0.80;99.90;;;;;;5093745;28;19927;-64
2022/12/11 08:35:40;;;;;;;;;;;0.80;99.90;;;;;;5103600;28;20041;-64
2022/12/11 08:38:05;;;;;;;;;;;0.80;99.90;;;;;;5089274;28;19928;-64
2022/12/11 08:40:31;;;;;;;;;;;0.90;99.90;;;;;;5086756;28;19920;-63
2022/12/11 08:42:56;;;;;;;;;;;0.90;99.90;;;;;;5073979;28;20014;-62
2022/12/11 08:45:22;;;;;;;;;;;1.00;99.90;;;;;;5087800;28;19924;-60
2022/12/11 08:47:47;;;;;;;;;;;0.90;99.90;;;;;;5089255;28;19974;-61
2022/12/11 08:50:13;;;;;;;;;;;1.00;99.90;;;;;;5087864;28;19946;-63
2022/12/11 08:52:38;;;;;;;;;;;0.90;99.90;;;;;;5089314;28;20006;-63
2022/12/11 08:55:04;;;;;;;;;;;1.00;99.90;;;;;;5088423;28;19928;-63
2022/12/11 08:57:29;;;;;;;;;;;1.00;99.90;;;;;;5090997;28;20287;-63
2022/12/11 08:59:55;;;;;;;;;;;1.00;99.90;;;;;;5082169;28;19971;-63
2022/12/11 09:02:20;;;;;;;;;;;1.00;99.90;;;;;;5073533;28;20027;-63
2022/12/11 09:04:46;;;;;;;;;;;1.00;99.90;;;;;;5094296;28;20435;-63
2022/12/11 09:07:11;;;;;;;;;;;1.00;99.90;;;;;;5089421;28;19921;-63
2022/12/11 09:09:37;;;;;;;;;;;1.10;99.90;;;;;;5077198;28;19924;-63
2022/12/11 09:12:03;;;;;;;;;;;1.00;99.90;;;;;;5101497;28;19959;-63
2022/12/11 09:14:29;;;;;;;;;;;1.00;99.90;;;;;;5091216;28;19936;-63
2022/12/11 09:16:54;;;;;;;;;;;1.00;99.90;;;;;;5060645;28;19924;-62
2022/12/11 09:19:20;;;;;;;;;;;1.00;99.90;;;;;;5105956;27;20359;-62
2022/12/11 09:21:45;;;;;;;;;;;1.00;99.90;;;;;;5073770;28;19973;-63
2022/12/11 09:24:11;;;;;;;;;;;1.00;99.90;;;;;;5111088;27;19920;-63
2022/12/11 09:26:37;;;;;;;;;;;1.00;99.90;;;;;;5094237;28;19924;-62
2022/12/11 09:29:03;;;;;;;;;;;1.10;99.90;;;;;;5076467;28;19927;-63
2022/12/11 09:31:30;;;;;;;;;;;1.10;99.90;;;;;;5105465;28;19920;-63
2022/12/11 09:34:00;;;;;;;;;;;1.10;99.90;;;;;;5072829;28;19920;-63
2022/12/11 09:36:25;;;;;;;;;;;1.00;99.90;;;;;;5110056;27;19928;-63
2022/12/11 09:38:51;;;;;;;;;;;1.10;99.90;;;;;;5107876;28;19920;-63
2022/12/11 09:41:25;;;;;;;;;;;1.10;99.90;;;;;;5093468;28;19997;-63
2022/12/11 09:43:57;;;;;;;;;;;1.20;99.90;;;;;;5070423;28;19944;-63
2022/12/11 09:46:23;;;;;;;;;;;1.20;99.90;;;;;;5072100;28;19963;-63
2022/12/11 09:48:49;;;;;;;;;;;1.20;99.90;;;;;;5102262;27;20005;-62
2022/12/11 09:51:31;;;;;;;;;;;1.10;99.90;;;;;;5072480;28;19928;-63
2022/12/11 09:53:59;;;;;;;;;;;1.10;99.90;;;;;;5074254;28;20271;-62
2022/12/11 09:56:31;;;;;;;;;;;1.20;99.90;;;;;;5068249;28;19924;-63
2022/12/11 09:59:02;;;;;;;;;;;1.10;99.90;;;;;;5091350;28;20007;-63
2022/12/11 10:01:30;;;;;;;;;;;1.20;99.90;;;;;;5091683;28;20054;-63
2022/12/11 10:04:04;;;;;;;;;;;1.10;99.90;;;;;;5092346;28;20011;-63
2022/12/11 10:06:33;;;;;;;;;;;1.20;99.90;;;;;;5074259;28;19923;-63
2022/12/11 10:09:08;;;;;;;;;;;1.20;99.90;;;;;;5090096;28;19928;-63
2022/12/11 10:11:57;;;;;;;;;;;1.20;99.90;;;;;;5087789;28;19951;-63
2022/12/11 10:14:34;;;;;;;;;;;1.30;99.90;;;;;;5070542;28;20444;-63
2022/12/11 10:17:06;;;;;;;;;;;1.20;99.90;;;;;;5090981;28;19924;-63
2022/12/11 10:19:33;;;;;;;;;;;1.30;99.90;;;;;;5088736;28;19927;-63
2022/12/11 10:21:59;;;;;;;;;;;1.20;99.90;;;;;;5103401;28;20411;-63
2022/12/11 10:24:47;;;;;;;;;;;1.30;99.90;;;;;;5092325;28;19920;-63
2022/12/11 10:27:15;;;;;;;;;;;1.30;99.90;;;;;;5105533;27;19928;-63
2022/12/11 10:29:40;;;;;;;;;;;1.20;99.90;;;;;;5108806;28;19945;-64
2022/12/11 10:32:12;;;;;;;;;;;1.30;99.90;;;;;;5074168;28;19988;-63
2022/12/11 10:34:41;;;;;;;;;;;1.30;99.90;;;;;;5108747;28;19925;-63
2022/12/11 10:37:06;;;;;;;;;;;1.30;99.90;;;;;;5077213;28;20382;-63
2022/12/11 10:39:32;;;;;;;;;;;1.40;99.90;;;;;;5071346;28;19967;-63
2022/12/11 10:41:57;;;;;;;;;;;1.30;99.90;;;;;;5072922;28;19920;-63
2022/12/11 10:44:24;;;;;;;;;;;1.30;99.90;;;;;;5090708;28;19927;-63
2022/12/11 10:47:02;;;;;;;;;;;1.30;99.90;;;;;;5092173;28;19920;-64
2022/12/11 10:49:29;;;;;;;;;;;1.30;99.90;;;;;;5092817;28;19931;-63
2022/12/11 10:51:55;;;;;;;;;;;1.40;99.90;;;;;;5072440;28;20287;-63
2022/12/11 10:54:27;;;;;;;;;;;1.40;99.90;;;;;;5055193;28;19932;-62
2022/12/11 10:56:53;;;;;;;;;;;1.40;99.90;;;;;;5075059;28;20293;-63
2022/12/11 10:59:36;;;;;;;;;;;1.40;99.90;;;;;;5063384;28;19924;-63
2022/12/11 11:02:03;;;;;;;;;;;1.40;99.90;;;;;;5090987;28;19920;-63
2022/12/11 11:04:31;;;;;;;;;;;1.50;99.90;;;;;;5090853;28;19924;-63
2022/12/11 11:07:00;;;;;;;;;;;1.30;99.90;;;;;;5088478;28;20432;-63
2022/12/11 11:09:44;;;;;;;;;;;1.40;99.90;;;;;;5072507;28;19923;-63
2022/12/11 11:12:17;;;;;;;;;;;1.40;99.90;;;;;;5091804;28;19927;-63
2022/12/11 11:14:42;;;;;;;;;;;1.30;99.90;;;;;;5087791;28;19932;-63
2022/12/11 11:17:13;;;;;;;;;;;1.30;99.90;;;;;;5090970;28;20289;-62
2022/12/11 11:19:39;;;;;;;;;;;1.50;99.90;;;;;;5084454;28;19920;-62
2022/12/11 11:22:12;;;;;;;;;;;1.50;99.90;;;;;;5086855;28;20019;-63
2022/12/11 11:24:46;;;;;;;;;;;1.50;99.90;;;;;;5088827;28;19927;-63
2022/12/11 11:27:18;;;;;;;;;;;1.40;99.90;;;;;;5087518;28;19931;-63
2022/12/11 11:29:44;;;;;;;;;;;1.40;99.90;;;;;;5093060;28;19919;-63
2022/12/11 11:32:18;;;;;;;;;;;1.50;99.90;;;;;;5092864;28;19935;-63
2022/12/11 11:34:43;;;;;;;;;;;1.60;99.90;;;;;;5094995;28;19933;-63
2022/12/11 11:37:30;;;;;;;;;;;1.60;99.90;;;;;;5082324;28;19951;-63
2022/12/11 11:39:58;;;;;;;;;;;1.50;99.90;;;;;;5091271;28;20265;-63
2022/12/11 11:42:28;;;;;;;;;;;1.60;99.90;;;;;;5087836;28;19994;-63
2022/12/11 11:45:01;;;;;;;;;;;1.50;99.90;;;;;;5091769;28;19928;-63
2022/12/11 11:47:29;;;;;;;;;;;1.60;99.90;;;;;;5082851;28;19945;-63
2022/12/11 11:49:59;;;;;;;;;;;1.60;99.90;;;;;;5098840;28;19926;-63
2022/12/11 11:52:29;;;;;;;;;;;1.60;99.90;;;;;;5083767;28;19927;-63
2022/12/11 11:55:14;;;;;;;;;;;1.60;99.90;;;;;;5124634;27;20051;-63
2022/12/11 11:57:43;;;;;;;;;;;1.60;99.90;;;;;;5090598;28;19924;-63
2022/12/11 12:00:14;;;;;;;;;;;1.60;99.90;;;;;;5091073;28;19930;-63
2022/12/11 12:02:40;;;;;;;;;;;1.60;99.90;;;;;;5095300;28;19919;-64
2022/12/11 12:05:10;;;;;;;;;;;1.60;99.90;;;;;;5087222;28;19985;-63
2022/12/11 12:07:40;;;;;;;;;;;1.50;99.90;;;;;;5094769;28;19926;-63
2022/12/11 12:10:18;;;;;;;;;;;1.50;99.90;;;;;;5094288;28;21569;-63
2022/12/11 12:12:56;;;;;;;;;;;1.50;99.90;;;;;;5092790;28;19926;-62
2022/12/11 12:15:40;;;;;;;;;;;1.60;99.90;;;;;;5120306;27;20279;-63
2022/12/11 12:18:06;;;;;;;;;;;1.50;99.90;;;;;;5089495;28;19955;-63
2022/12/11 12:20:34;;;;;;;;;;;1.60;99.90;;;;;;5086926;28;20378;-63
2022/12/11 12:23:05;;;;;;;;;;;1.50;99.90;;;;;;5093845;28;20406;-63
2022/12/11 12:25:43;;;;;;;;;;;1.60;99.90;;;;;;5130018;27;20138;-63
2022/12/11 12:28:24;;;;;;;;;;;1.60;99.90;;;;;;5092383;28;21043;-63
2022/12/11 12:31:04;;;;;;;;;;;1.50;99.90;;;;;;5090635;28;19924;-63
2022/12/11 12:33:47;;;;;;;;;;;1.50;99.90;;;;;;5087920;28;20031;-63
2022/12/11 12:36:17;;;;;;;;;;;1.40;99.90;;;;;;5093675;28;19936;-64
2022/12/11 12:38:42;;;;;;;;;;;1.50;99.90;;;;;;5088610;28;20019;-63
2022/12/11 12:41:18;;;;;;;;;;;1.40;99.90;;;;;;5088267;28;19959;-64
2022/12/11 12:44:05;;;;;;;;;;;1.40;99.90;;;;;;5085216;28;19928;-63
2022/12/11 12:46:37;;;;;;;;;;;1.40;99.90;;;;;;5091800;28;19931;-64
2022/12/11 12:49:04;;;;;;;;;;;1.30;99.90;;;;;;5085771;28;20378;-64
2022/12/11 12:51:29;;;;;;;;;;;1.40;99.90;;;;;;5084365;28;19928;-64
2022/12/11 12:54:00;;;;;;;;;;;1.30;99.90;;;;;;5127526;27;20072;-64
2022/12/11 12:56:27;;;;;;;;;;;1.30;99.90;;;;;;5124467;27;20095;-63
2022/12/11 12:58:53;;;;;;;;;;;1.30;99.90;;;;;;5091329;28;20378;-64
2022/12/11 13:01:20;;;;;;;;;;;1.30;99.90;;;;;;5085553;28;19946;-64
2022/12/11 13:03:51;;;;;;;;;;;1.30;99.90;;;;;;5129592;27;20310;-64
2022/12/11 13:06:27;;;;;;;;;;;1.30;99.90;;;;;;5124440;27;19962;-64
2022/12/11 13:08:52;;;;;;;;;;;1.20;99.90;;;;;;5077443;28;19920;-63
2022/12/11 13:11:19;;;;;;;;;;;1.30;99.90;;;;;;5091275;28;19931;-64
2022/12/11 13:13:46;;;;;;;;;;;1.20;99.90;;;;;;5089733;28;20360;-63
2022/12/11 13:16:14;;;;;;;;;;;1.30;99.90;;;;;;5085698;28;20427;-63
2022/12/11 13:18:41;;;;;;;;;;;1.30;99.90;;;;;;5090928;28;19928;-63
2022/12/11 13:21:22;;;;;;;;;;;1.30;99.90;;;;;;5092806;28;20336;-64
2022/12/11 13:23:47;;;;;;;;;;;1.30;99.90;;;;;;5096120;28;19923;-63
2022/12/11 13:26:13;;;;;;;;;;;1.30;99.90;;;;;;5093592;28;19943;-64
2022/12/11 13:28:38;;;;;;;;;;;1.40;99.90;;;;;;5093131;28;20276;-64
2022/12/11 13:31:13;;;;;;;;;;;1.30;99.90;;;;;;5082126;28;19924;-64
2022/12/11 13:33:48;;;;;;;;;;;1.30;99.90;;;;;;5089575;28;19920;-64
2022/12/11 13:36:17;;;;;;;;;;;1.40;99.90;;;;;;5079252;28;19931;-64
2022/12/11 13:38:48;;;;;;;;;;;1.40;99.90;;;;;;5091473;28;19924;-64
2022/12/11 13:41:13;;;;;;;;;;;1.30;99.90;;;;;;5089222;28;19935;-63
2022/12/11 13:43:41;;;;;;;;;;;1.40;99.90;;;;;;5096946;28;19971;-64
2022/12/11 13:46:08;;;;;;;;;;;1.40;99.90;;;;;;5096392;28;19930;-64
2022/12/11 13:48:37;;;;;;;;;;;1.40;99.90;;;;;;5101850;28;20305;-64
2022/12/11 13:51:03;;;;;;;;;;;1.30;99.90;;;;;;5096377;28;19943;-64
2022/12/11 13:53:29;;;;;;;;;;;1.40;99.90;;;;;;5098916;28;19920;-64
2022/12/11 13:55:59;;;;;;;;;;;1.40;99.90;;;;;;5095894;28;19938;-64
2022/12/11 13:58:25;;;;;;;;;;;1.30;99.90;;;;;;5095911;28;20384;-64
2022/12/11 14:01:02;;;;;;;;;;;1.30;99.90;;;;;;5127343;27;19961;-64
2022/12/11 14:03:29;;;;;;;;;;;1.30;99.90;;;;;;5094592;28;19920;-64
2022/12/11 14:05:54;;;;;;;;;;;1.30;99.90;;;;;;5086910;28;19920;-64
2022/12/11 14:08:22;;;;;;;;;;;1.40;99.90;;;;;;5085283;28;19927;-64
2022/12/11 14:10:53;;;;;;;;;;;1.40;99.90;;;;;;5091851;28;19920;-64
2022/12/11 14:13:19;;;;;;;;;;;1.40;99.90;;;;;;5099161;28;19934;-64
2022/12/11 14:15:45;;;;;;;;;;;1.30;99.90;;;;;;5097217;28;20011;-64
2022/12/11 14:18:16;;;;;;;;;;;1.30;99.90;;;;;;5118276;27;19927;-64
2022/12/11 14:20:42;;;;;;;;;;;1.30;99.90;;;;;;5115281;27;19931;-64
2022/12/11 14:23:14;;;;;;;;;;;1.30;99.90;;;;;;5121775;27;20299;-64
2022/12/11 14:25:39;;;;;;;;;;;1.30;99.90;;;;;;5082021;28;19920;-64
2022/12/11 14:28:13;;;;;;;;;;;1.20;99.90;;;;;;5090767;28;19931;-64
2022/12/11 14:30:43;;;;;;;;;;;1.30;99.90;;;;;;5123411;27;20007;-64
2022/12/11 14:33:09;;;;;;;;;;;1.20;99.90;;;;;;5090090;28;19973;-64
2022/12/11 14:35:37;;;;;;;;;;;1.20;99.90;;;;;;5092514;28;20275;-64
2022/12/11 14:38:05;;;;;;;;;;;1.20;99.90;;;;;;5075269;28;19935;-64
2022/12/11 14:40:34;;;;;;;;;;;1.20;99.90;;;;;;5093465;28;19928;-64
2022/12/11 14:43:02;;;;;;;;;;;1.10;99.90;;;;;;5093039;28;19931;-64
2022/12/11 14:45:39;;;;;;;;;;;1.10;99.90;;;;;;5093728;28;20380;-64